Time;durP1;ratioP1;P1;durP2;ratioP2;P2;SDS_P1;SDS_P2;PMS_P1;PMS_P2;Temp;Humidity;BMP_temperature;BMP_pressure;BME280_temperature;BME280_humidity;BME280_pressure;Samples;Min_cycle;Max_cycle;Signal;HPM_P1;HPM_P2
2023/04/19 05:56:06;;;;;;;8.02;6.10;;;;;;;;;;5257640;23;20459;-86
2023/04/19 05:58:31;;;;;;;10.07;6.35;;;;;;;;;;4968038;28;20035;-85
2023/04/19 06:00:57;;;;;;;7.45;5.75;;;;;;;;;;4955147;29;20050;-85
2023/04/19 06:03:22;;;;;;;8.07;6.38;;;;;;;;;;4955583;29;20023;-83
2023/04/19 06:05:48;;;;;;;7.65;5.78;;;;;;;;;;4954889;29;20086;-83
2023/04/19 11:33:01;;;;;;;5.78;4.78;;;;;;;;;;5661892;23;20060;-93
2023/04/19 11:35:29;;;;;;;6.38;4.60;;;;;;;;;;4922172;29;20091;-92
2023/04/19 11:37:55;;;;;;;4.95;4.43;;;;;;;;;;4938772;29;20028;-89
2023/04/19 11:40:22;;;;;;;4.75;4.15;;;;;;;;;;4921684;29;20031;-91
2023/04/19 11:42:58;;;;;;;5.13;4.13;;;;;;;;;;4938923;29;20038;-90
2023/04/19 11:45:29;;;;;;;5.03;4.20;;;;;;;;;;4939246;29;20032;-92
2023/04/19 17:22:04;;;;;;;4.18;3.78;;;;;;;;;;5271498;23;20107;-83
2023/04/19 17:24:32;;;;;;;4.20;3.83;;;;;;;;;;4936072;29;20122;-83
2023/04/19 17:26:58;;;;;;;5.15;3.97;;;;;;;;;;4936053;29;20542;-82
2023/04/19 17:29:24;;;;;;;4.50;4.10;;;;;;;;;;4936260;29;20028;-81
2023/04/19 17:31:52;;;;;;;4.65;4.25;;;;;;;;;;4918922;29;20131;-82
2023/04/19 17:34:18;;;;;;;4.35;3.83;;;;;;;;;;4936193;29;20047;-82
2023/04/19 17:36:44;;;;;;;4.82;4.35;;;;;;;;;;4935961;29;20063;-82
2023/04/19 17:39:09;;;;;;;3.97;3.67;;;;;;;;;;4936266;29;20031;-82
2023/04/19 17:41:35;;;;;;;5.53;4.15;;;;;;;;;;4936187;29;20024;-81
2023/04/19 17:44:00;;;;;;;4.13;3.72;;;;;;;;;;4919328;29;20039;-82
2023/04/19 17:46:26;;;;;;;3.90;3.58;;;;;;;;;;4936165;29;20356;-82
2023/04/19 17:48:53;;;;;;;3.92;3.63;;;;;;;;;;4935905;29;20530;-82
2023/04/19 17:51:18;;;;;;;4.90;3.75;;;;;;;;;;4936153;29;20032;-82
2023/04/19 17:53:44;;;;;;;4.00;3.50;;;;;;;;;;4918958;29;20498;-82
2023/04/19 17:56:09;;;;;;;4.25;3.85;;;;;;;;;;4936151;29;20379;-83
2023/04/19 17:58:35;;;;;;;5.05;3.80;;;;;;;;;;4918961;29;20474;-84
2023/04/19 18:01:02;;;;;;;3.75;3.38;;;;;;;;;;4936096;29;20028;-82
2023/04/19 18:03:28;;;;;;;3.70;3.40;;;;;;;;;;4919018;29;20394;-81
2023/04/19 18:05:53;;;;;;;3.47;3.17;;;;;;;;;;4919678;29;20031;-82
2023/04/19 18:08:19;;;;;;;3.75;3.40;;;;;;;;;;4939716;29;20471;-79
2023/04/19 18:10:44;;;;;;;3.45;3.15;;;;;;;;;;4939791;29;20028;-79
2023/04/19 18:13:10;;;;;;;4.30;3.47;;;;;;;;;;4939759;29;20026;-81
2023/04/19 18:15:35;;;;;;;10.75;4.25;;;;;;;;;;4939664;29;20039;-79
2023/04/19 18:18:01;;;;;;;4.38;3.97;;;;;;;;;;4939717;29;20042;-80
2023/04/19 18:20:26;;;;;;;4.55;4.10;;;;;;;;;;4939338;29;20474;-81
2023/04/19 18:22:52;;;;;;;4.10;3.70;;;;;;;;;;4922014;29;20499;-81
2023/04/19 18:25:18;;;;;;;4.55;4.07;;;;;;;;;;4922233;29;20501;-82
2023/04/19 18:27:43;;;;;;;4.35;3.95;;;;;;;;;;4921937;29;20051;-81
2023/04/19 18:30:09;;;;;;;4.43;4.00;;;;;;;;;;4922574;29;20055;-82
2023/04/19 18:32:35;;;;;;;4.57;4.07;;;;;;;;;;4939511;29;20055;-86
2023/04/19 18:35:04;;;;;;;4.20;3.85;;;;;;;;;;4922954;29;20070;-89
2023/04/19 18:37:30;;;;;;;4.53;3.90;;;;;;;;;;4940187;29;20035;-81
2023/04/19 18:39:55;;;;;;;4.25;3.75;;;;;;;;;;4939286;29;20027;-81
2023/04/19 18:42:22;;;;;;;4.43;4.03;;;;;;;;;;4939297;29;20518;-87
2023/04/19 18:44:47;;;;;;;4.18;3.80;;;;;;;;;;4922487;29;20027;-84
2023/04/19 18:47:13;;;;;;;4.32;3.92;;;;;;;;;;4938899;29;20031;-83
2023/04/19 18:49:38;;;;;;;4.28;3.85;;;;;;;;;;4921910;29;20043;-84
2023/04/19 18:52:04;;;;;;;5.40;4.90;;;;;;;;;;4939017;29;20051;-85
2023/04/19 18:54:29;;;;;;;5.30;4.80;;;;;;;;;;4938928;29;20024;-82
2023/04/19 18:56:55;;;;;;;5.10;4.40;;;;;;;;;;4939290;29;20037;-88
2023/04/19 18:59:20;;;;;;;5.03;4.53;;;;;;;;;;4939329;29;20059;-88
2023/04/19 19:01:46;;;;;;;6.22;4.22;;;;;;;;;;4922352;29;20031;-88
2023/04/19 19:04:20;;;;;;;4.95;4.45;;;;;;;;;;4922381;29;20252;-88
2023/04/19 19:06:45;;;;;;;4.85;4.40;;;;;;;;;;4922021;29;20133;-87
2023/04/19 19:09:11;;;;;;;5.00;4.60;;;;;;;;;;4922002;29;20111;-88
2023/04/19 19:11:37;;;;;;;5.00;4.53;;;;;;;;;;4939478;29;20024;-88
2023/04/19 19:14:02;;;;;;;4.60;4.00;;;;;;;;;;4922140;29;20426;-89
2023/04/19 19:16:28;;;;;;;4.20;3.60;;;;;;;;;;4922022;29;20032;-88
2023/04/19 19:18:54;;;;;;;3.85;3.42;;;;;;;;;;4922310;29;20028;-86
2023/04/19 19:21:20;;;;;;;4.70;4.05;;;;;;;;;;4939476;29;20446;-90
2023/04/19 19:23:46;;;;;;;3.90;3.60;;;;;;;;;;4939147;29;20079;-89
2023/04/19 19:26:12;;;;;;;5.40;4.15;;;;;;;;;;4922325;29;20438;-90
2023/04/19 19:28:39;;;;;;;4.32;3.92;;;;;;;;;;4938731;29;20372;-85
2023/04/19 19:31:04;;;;;;;4.30;3.90;;;;;;;;;;4921921;29;20028;-86
2023/04/19 19:33:30;;;;;;;4.32;3.92;;;;;;;;;;4938749;29;20039;-88
2023/04/19 19:35:57;;;;;;;5.53;4.20;;;;;;;;;;4921822;29;20035;-89
2023/04/19 19:38:23;;;;;;;4.03;3.63;;;;;;;;;;4921802;29;20046;-89
2023/04/19 19:40:49;;;;;;;4.15;3.75;;;;;;;;;;4921910;29;20020;-92
2023/04/19 19:43:15;;;;;;;3.60;3.30;;;;;;;;;;4921988;29;20062;-90
2023/04/19 19:45:41;;;;;;;4.30;3.90;;;;;;;;;;4938860;29;20023;-91
